Overview Statistics Trail Chart Weather Telemetry Raw packets
 

This is the latest recevied weather packets stored in our database for station/object DG1GMY-10. If no packets are shown the sender has not sent any weather packets the latest 10 day(s).

<< 1 2 3 4 5 >>
Time Temp. Humidity Pressure Rain* Wind** Luminosity Snow
1788543412 31.67° C 35% 1015.9 hPa - - - -
1788539812 36.67° C 28% 1015.6 hPa - - - -
1788536212 43.33° C 19% 1015.6 hPa - - - -
1788529011 37.78° C 28% 1016.5 hPa - - - -
1788525411 30.56° C 41% 1017.5 hPa - - - -
1788521811 27.78° C 48% 1018.2 hPa - - - -
1788518211 26.67° C 51% 1019.1 hPa - - - -
1788514611 25.56° C 56% 1020 hPa - - - -
1788511011 23.89° C 60% 1020.3 hPa - - - -
1788507411 21.67° C 74% 1020.6 hPa - - - -
1788503811 19.44° C 87% 1021.2 hPa - - - -
1788500211 18.89° C 91% 1021.2 hPa - - - -
1788496611 19.44° C 81% 1021.4 hPa - - - -
1788493010 19.44° C 78% 1021.6 hPa - - - -
1788489410 21.11° C 67% 1022.2 hPa - - - -
1788485810 21.11° C 65% 1022.3 hPa - - - -
1788482210 21.67° C 62% 1022.4 hPa - - - -
1788478610 22.22° C 59% 1023 hPa - - - -
1788475010 22.78° C 56% 1023.1 hPa - - - -
1788471410 23.33° C 52% 1023.3 hPa - - - -
1788467810 23.33° C 52% 1023.2 hPa - - - -
1788464210 23.33° C 54% 1023.3 hPa - - - -
1788460609 23.33° C 56% 1022.7 hPa - - - -
1788457009 25° C 53% 1022.4 hPa - - - -
1788453410 27.78° C 41% 1022 hPa - - - -

* Rain since midnight (hover to see other rain measurements)
** Current wind speed in m/s (hover to see current wind gust speed)